createdAt,value
2022-10-19T00:00:09.747Z,1.9264214046822743
2022-10-19T00:06:38.167Z,1.5418060200668897
2022-10-19T00:13:06.185Z,0.9933110367892977
2022-10-19T00:19:34.775Z,0.9899665551839465
2022-10-19T00:26:19.592Z,2.0936454849498327
2022-10-19T00:32:47.874Z,1.0100334448160535
2022-10-19T00:39:16.365Z,1.2274247491638797
2022-10-19T00:49:30.785Z,1.2474916387959867
2022-10-19T00:55:59.518Z,0.7324414715719063
2022-10-19T01:02:28.749Z,1.0501672240802675
2022-10-19T01:08:57.929Z,1.565217391304348
2022-10-19T01:21:45.538Z,1.4180602006688963
2022-10-19T01:28:30.940Z,0.9431438127090301
2022-10-19T01:35:00.358Z,2.0267558528428093
2022-10-19T01:41:29.093Z,3.1638795986622075
2022-10-19T01:50:33.406Z,1.6421404682274248
2022-10-19T02:00:16.633Z,1.6688963210702341
2022-10-19T02:12:24.824Z,2.100334448160535
2022-10-19T02:23:24.393Z,1.4849498327759196
2022-10-19T02:29:57.744Z,2.317725752508361
2022-10-19T02:36:25.847Z,1.4381270903010033
2022-10-19T02:42:54.751Z,1.9163879598662208
2022-10-19T02:49:24.718Z,1.1103678929765886
2022-10-19T02:55:54.679Z,2.5852842809364547
2022-10-19T03:12:23.379Z,1.2508361204013378
2022-10-19T03:18:52.559Z,1.31438127090301
2022-10-19T03:29:24.933Z,1.9163879598662208
2022-10-19T03:35:53.325Z,1.1705685618729098
2022-10-19T03:42:21.162Z,1.605351170568562
2022-10-19T03:48:49.357Z,1.4849498327759196
2022-10-19T03:55:18.708Z,1.9899665551839465
2022-10-19T04:04:35.275Z,1.9096989966555185
2022-10-19T04:11:04.530Z,2.2040133779264215
2022-10-19T04:17:34.048Z,1.491638795986622
2022-10-19T04:24:17.358Z,2.7324414715719065
2022-10-19T04:30:45.148Z,2.076923076923077
2022-10-19T04:37:13.860Z,1.9899665551839465
2022-10-19T04:43:43.317Z,2.31438127090301
2022-10-19T04:50:12.954Z,1.8762541806020068
2022-10-19T05:01:58.378Z,1.6555183946488294
2022-10-19T05:08:26.903Z,1.6755852842809364
2022-10-19T05:14:55.649Z,2.2675585284280935
2022-10-19T05:21:23.369Z,2.060200668896321
2022-10-19T05:28:05.206Z,1.2240802675585285
2022-10-19T05:34:37.880Z,2.157190635451505
2022-10-19T05:41:13.629Z,1.9030100334448161
2022-10-19T05:47:51.184Z,1.3210702341137124
2022-10-19T05:54:26.378Z,1.4749163879598661
2022-10-19T06:01:14.206Z,1.7759197324414715
2022-10-19T06:07:57.220Z,2.076923076923077
2022-10-19T06:14:32.054Z,2.1538461538461537
2022-10-19T06:21:23.856Z,1.2073578595317727
2022-10-19T06:28:00.371Z,1.1036789297658862
2022-10-19T06:34:33.705Z,1.9698996655518395
2022-10-19T06:41:09.296Z,1.8662207357859533
2022-10-19T06:47:39.564Z,1.6521739130434783
2022-10-19T06:54:11.470Z,1.9297658862876255
2022-10-19T07:00:48.594Z,1.0769230769230769
2022-10-19T07:16:37.797Z,1.7424749163879598
2022-10-19T07:23:33.982Z,0.8361204013377926
2022-10-19T07:35:32.922Z,1.9464882943143813
2022-10-19T07:48:03.482Z,1.4816053511705685
2022-10-19T07:54:31.283Z,1.4882943143812708
2022-10-19T08:02:14.309Z,1.1906354515050168
2022-10-19T08:08:42.362Z,1.391304347826087
2022-10-19T08:18:38.806Z,2.471571906354515
2022-10-19T08:29:14.402Z,2.448160535117057
2022-10-19T08:41:28.395Z,1.334448160535117
2022-10-19T08:47:59.419Z,1.2709030100334449
2022-10-19T09:01:54.734Z,1.5150501672240804
2022-10-19T09:08:22.274Z,1.7591973244147157
2022-10-19T09:14:51.035Z,0.9698996655518395
2022-10-19T09:21:19.572Z,0.8494983277591973
2022-10-19T09:27:58.797Z,1.31438127090301
2022-10-19T09:38:35.568Z,1.1638795986622072
2022-10-19T09:45:04.847Z,1.3678929765886287
2022-10-19T09:51:32.629Z,0.8762541806020067
2022-10-19T09:58:00.971Z,1.5351170568561874
2022-10-19T10:04:29.366Z,1.842809364548495
2022-10-19T10:10:57.461Z,0.8494983277591973
2022-10-19T10:21:12.560Z,1.1036789297658862
2022-10-19T10:27:53.578Z,2.4581939799331103
2022-10-19T10:34:28.325Z,0.9163879598662207
2022-10-19T10:40:58.657Z,1.7357859531772575
2022-10-19T10:47:27.593Z,1.1672240802675586
2022-10-19T10:53:55.616Z,1.0769230769230769
2022-10-19T11:00:23.489Z,1.4448160535117056
2022-10-19T11:06:52.099Z,1.5150501672240804
2022-10-19T11:13:19.363Z,1.4180602006688963
2022-10-19T11:19:48.409Z,1.7625418060200668
2022-10-19T11:26:26.050Z,1.705685618729097
2022-10-19T11:32:53.906Z,2.7859531772575252
2022-10-19T11:40:06.918Z,2.197324414715719
2022-10-19T11:46:34.707Z,1.6220735785953178
2022-10-19T12:05:40.851Z,1.8528428093645486
2022-10-19T12:12:08.860Z,0.6220735785953178
2022-10-19T12:21:57.501Z,1.3578595317725752
2022-10-19T12:34:26.372Z,2.080267558528428
2022-10-19T12:40:54.232Z,2.177257525083612
2022-10-19T12:53:07.307Z,0.8795986622073578
2022-10-19T12:59:36.029Z,1.7926421404682273
2022-10-19T13:06:10.220Z,1.4280936454849498
2022-10-19T13:12:46.513Z,0.5953177257525084
2022-10-19T13:25:14.019Z,0.8093645484949833
2022-10-19T13:31:47.081Z,1.3244147157190636
2022-10-19T13:38:22.068Z,1.3110367892976589
2022-10-19T13:44:56.699Z,1.434782608695652
2022-10-19T13:51:30.114Z,1.508361204013378
2022-10-19T13:58:00.479Z,1.7190635451505016
2022-10-19T14:04:30.153Z,1.9230769230769231
2022-10-19T14:11:01.029Z,1.431438127090301
2022-10-19T14:17:29.330Z,1.7625418060200668
2022-10-19T14:24:04.852Z,1.5050167224080269
2022-10-19T14:36:16.788Z,1.4080267558528428
2022-10-19T14:42:45.245Z,1.3010033444816054
2022-10-19T14:50:04.808Z,2.8060200668896322
2022-10-19T14:56:32.835Z,1.6421404682274248
2022-10-19T15:03:01.588Z,1.3311036789297659
2022-10-19T15:09:37.587Z,1.0535117056856187
2022-10-19T15:16:11.633Z,1.1772575250836121
2022-10-19T15:22:39.359Z,1.5250836120401339
2022-10-19T15:29:14.389Z,1.5351170568561874
2022-10-19T15:35:43.781Z,1.193979933110368
2022-10-19T15:44:52.683Z,1.3244147157190636
2022-10-19T15:51:21.868Z,1.1839464882943145
2022-10-19T15:57:50.865Z,1.5518394648829432
2022-10-19T16:04:20.042Z,1.4080267558528428
2022-10-19T16:10:49.155Z,2.130434782608696
2022-10-19T16:21:49.988Z,1.3277591973244147
2022-10-19T16:28:19.703Z,2.4949832775919734
2022-10-19T16:35:43.454Z,1.9632107023411371
2022-10-19T16:42:12.767Z,1.434782608695652
2022-10-19T16:48:39.932Z,1.4581939799331103
2022-10-19T17:00:22.519Z,2.698996655518395
2022-10-19T17:09:40.334Z,1.5150501672240804
2022-10-19T17:22:39.758Z,1.2842809364548495
2022-10-19T17:29:13.112Z,1.9364548494983278
2022-10-19T17:35:47.158Z,2.9063545150501673
2022-10-19T17:42:22.248Z,2.709030100334448
2022-10-19T17:52:46.683Z,3.62876254180602
2022-10-19T17:59:14.761Z,4.344481605351171
2022-10-19T18:05:45.421Z,3.782608695652174
2022-10-19T18:16:20.326Z,5.585284280936455
2022-10-19T18:22:57.533Z,6.274247491638796
2022-10-19T18:29:33.699Z,4.147157190635451
2022-10-19T18:36:05.131Z,3.548494983277592
2022-10-19T18:45:14.792Z,4.033444816053512
2022-10-19T19:02:22.383Z,5.187290969899665
2022-10-19T19:08:57.906Z,7.193979933110368
2022-10-19T19:22:22.694Z,7.234113712374582
2022-10-19T19:29:16.503Z,4.1237458193979935
2022-10-19T19:35:46.489Z,4.909698996655519
2022-10-19T19:42:14.867Z,4.214046822742475
2022-10-19T19:53:04.923Z,4.036789297658863
2022-10-19T19:59:34.777Z,4.688963210702341
2022-10-19T20:09:47.796Z,4.735785953177258
2022-10-19T20:16:17.068Z,3.234113712374582
2022-10-19T20:24:19.725Z,1.839464882943144
2022-10-19T20:30:48.540Z,1.6755852842809364
2022-10-19T20:37:18.387Z,3.471571906354515
2022-10-19T20:43:47.758Z,2.347826086956522
2022-10-19T20:50:19.262Z,1.7959866220735785
2022-10-19T21:00:57.321Z,3.448160535117057
2022-10-19T21:07:25.093Z,2.8561872909698995
2022-10-19T21:13:55.419Z,3.722408026755853
2022-10-19T21:20:23.249Z,3.197324414715719
2022-10-19T21:27:06.790Z,2.862876254180602
2022-10-19T21:33:35.242Z,2.9933110367892977
2022-10-19T21:44:36.599Z,2.42809364548495
2022-10-19T21:53:31.313Z,2.3076923076923075
2022-10-19T22:05:28.185Z,2.2040133779264215
2022-10-19T22:14:38.363Z,1.0
2022-10-19T22:21:08.762Z,2.57190635451505
2022-10-19T22:41:49.009Z,2.2474916387959865
2022-10-19T23:00:00.588Z,1.5250836120401339
2022-10-19T23:06:31.816Z,1.4949832775919731
2022-10-19T23:13:02.251Z,1.9732441471571907
2022-10-19T23:20:06.362Z,1.6187290969899666
2022-10-19T23:26:51.966Z,1.568561872909699
2022-10-19T23:33:21.635Z,2.6053511705685617
2022-10-19T23:39:50.002Z,1.8762541806020068
2022-10-19T23:46:18.896Z,2.57190635451505
2022-10-19T23:59:16.473Z,1.5518394648829432
